• Join FlightAware (Why Join?)
  • Login
  • US Flag 
09:02AM EST


 

Airport Tracker/Info


-or-


 

Live Flight TrackerFlight Track Log ✈ SKW6335 ✈ 04-May-2013 ✈ KLAX - KSAN

Flight Track Log - Related Links

Times and Time Zones

All times are in EDT time to prevent confusion due to time zone crossing. See the SKW6335 flight status page for this flight to view local times or setup timezone preferences in your user account.

Time Position Orientation Groundspeed Altitude Reporting Facility
EDT Latitude Longitude Course Direction KTS MPH feet Rate Location/Type
06:07PM 33.9167 -118.4667 140° Southeast 190 219 2,500  Level Southern California TRACON
06:08PM 33.8667 -118.4833 195° South 190 219 3,900 1,320 Climbing Southern California TRACON
06:09PM 33.8000 -118.4833 180° South 207 238 5,200 1,320 Climbing Southern California TRACON
06:10PM 33.6897 -118.1495 139° Southeast  Level Estimated
06:10PM 33.7500 -118.4500 151° Southeast 212 244 6,600  Level Southern California TRACON
06:11PM 33.6266 -118.0847 139° Southeast  Level FlightAware Approximate
06:11PM 33.7167 -118.4161 140° Southeast 209 241 7,800  Level Los Angeles Center
06:12PM 33.5804 -118.0374 140° Southeast  Level FlightAware Approximate
06:12PM 33.6769 -118.3681 135° Southeast 208 239 9,000  Level Los Angeles Center
06:13PM 33.6214 -118.3025 135° Southeast 225 259 9,000  Level Los Angeles Center
06:14PM 33.5708 -118.2450 137° Southeast 242 278 9,000  Level Los Angeles Center
06:15PM 33.5261 -118.1794 129° Southeast 251 289 9,000  Level Los Angeles Center
06:16PM 33.4911 -118.1067 120° Southeast 253 291 9,000  Level Los Angeles Center
06:17PM 33.4486 -118.0208 121° Southeast 253 291 9,000  Level Los Angeles Center
06:18PM 33.4119 -117.9497 122° Southeast 253 291 9,000  Level Los Angeles Center
06:19PM 33.3750 -117.8792 122° Southeast 252 290 9,000  Level Los Angeles Center
06:20PM 33.3375 -117.8069 122° Southeast 256 295 9,000  Level Los Angeles Center
06:21PM 33.2997 -117.7347 122° Southeast 255 293 9,000  Level Los Angeles Center
06:22PM 33.2628 -117.6628 122° Southeast 257 296 9,000  Level Los Angeles Center
06:23PM 33.2167 -117.5833 125° Southeast 257 296 9,000  Level Southern California TRACON
06:24PM 33.1833 -117.5167 121° Southeast 260 299 9,000  Level Southern California TRACON
06:25PM 33.1500 -117.4500 121° Southeast 260 299 9,000 -540 Level Southern California TRACON
06:26PM 33.0833 -117.4000 148° Southeast 272 313 8,000 -900 Descending Southern California TRACON
06:26PM 33.0731 -117.3922 148° Southeast 272 313 7,900 -900 Descending Los Angeles Center
06:27PM 33.0167 -117.3667 159° South 277 319 7,100 -540 Descending Southern California TRACON
06:28PM 32.9500 -117.3167 148° Southeast 257 296 7,000 -120 Descending Southern California TRACON
06:29PM 32.9000 -117.2667 140° Southeast 257 296 6,900 -720 Descending Southern California TRACON
06:30PM 32.8500 -117.2000 132° Southeast 288 331 5,600 -1,140 Descending Southern California TRACON
06:31PM 32.8275 -117.1725 134° Southeast 280 322 5,200 -420 Descending Los Angeles Center
06:32PM 32.7711 -117.0853 128° Southeast 273 314 5,000 -180 Descending Los Angeles Center
06:32PM 32.7667 -117.0667 106° East 259 298 5,000  Level Southern California TRACON
06:33PM 32.7500 -116.9833 103° East 248 285 5,000 -480 Level Southern California TRACON
06:34PM 32.7000 -116.9500 151° Southeast 245 282 4,100 -960 Descending Southern California TRACON
06:35PM 32.6833 -117.0000 248° West 216 249 3,100 -840 Descending Southern California TRACON
06:36PM 32.7000 -117.0667 287° West 180 207 2,500 -840 Descending Southern California TRACON
06:37PM 32.7167 -117.1000 301° West 142 163 1,500 -900 Descending Southern California TRACON
06:38PM 32.7222 -117.1450 278° West 142 163 900 -660 Descending Los Angeles Center
06:39PM 32.7319 -117.1833 287° West 141 162 300 -600 Descending Los Angeles Center